createdAt,value
2018-07-06T00:00:25.898Z,2.10
2018-07-06T00:03:05.499Z,2.37
2018-07-06T00:05:45.359Z,2.27
2018-07-06T00:08:25.089Z,2.33
2018-07-06T00:11:05.240Z,2.67
2018-07-06T00:20:55.584Z,1.87
2018-07-06T00:23:35.224Z,2.00
2018-07-06T00:26:14.867Z,2.53
2018-07-06T00:28:54.606Z,3.20
2018-07-06T00:31:34.276Z,2.27
2018-07-06T00:34:14.053Z,2.70
2018-07-06T00:36:47.677Z,2.23
2018-07-06T00:39:27.347Z,2.20
2018-07-06T00:42:07.241Z,2.33
2018-07-06T00:44:41.019Z,2.43
2018-07-06T00:47:20.768Z,2.93
2018-07-06T00:50:00.505Z,2.23
2018-07-06T00:52:40.243Z,2.60
2018-07-06T00:55:19.944Z,2.17
2018-07-06T00:57:59.571Z,2.30
2018-07-06T01:00:33.185Z,2.90
2018-07-06T01:03:06.827Z,2.47
2018-07-06T01:05:46.692Z,3.10
2018-07-06T01:08:27.063Z,3.00
2018-07-06T01:11:06.911Z,2.80
2018-07-06T01:13:46.572Z,3.60
2018-07-06T01:16:26.687Z,3.17
2018-07-06T01:19:07.699Z,3.27
2018-07-06T01:21:47.399Z,3.83
2018-07-06T01:24:27.191Z,3.30
2018-07-06T01:27:06.737Z,2.93
2018-07-06T01:29:46.452Z,3.17
2018-07-06T01:32:26.327Z,2.87
2018-07-06T01:35:06.073Z,4.00
2018-07-06T01:37:45.803Z,3.27
2018-07-06T01:40:25.698Z,4.00
2018-07-06T01:43:05.327Z,3.70
2018-07-06T01:45:38.910Z,3.83
2018-07-06T01:48:18.571Z,3.60
2018-07-06T01:50:52.354Z,4.00
2018-07-06T01:53:32.013Z,3.63
2018-07-06T01:56:05.801Z,4.27
2018-07-06T01:58:45.464Z,4.17
2018-07-06T02:01:25.149Z,4.07
2018-07-06T02:04:04.959Z,4.10
2018-07-06T02:06:38.730Z,4.33
2018-07-06T02:09:18.463Z,4.93
2018-07-06T02:11:58.116Z,5.13
2018-07-06T02:14:37.869Z,5.37
2018-07-06T02:17:17.675Z,4.80
2018-07-06T02:19:57.359Z,4.90
2018-07-06T02:22:36.931Z,4.50
2018-07-06T02:25:10.623Z,5.20
2018-07-06T02:27:50.309Z,5.50
2018-07-06T02:30:30.236Z,5.57
2018-07-06T02:33:04.015Z,5.57
2018-07-06T02:35:43.750Z,5.67
2018-07-06T02:38:23.369Z,5.43
2018-07-06T02:41:03.129Z,5.10
2018-07-06T02:43:42.759Z,5.60
2018-07-06T02:46:22.692Z,5.63
2018-07-06T02:49:02.588Z,5.00
2018-07-06T02:51:42.326Z,5.67
2018-07-06T02:54:21.914Z,5.40
2018-07-06T02:57:01.548Z,4.87
2018-07-06T02:59:35.187Z,5.80
2018-07-06T03:02:14.893Z,5.70
2018-07-06T03:04:48.563Z,6.17
2018-07-06T03:07:28.223Z,5.87
2018-07-06T03:10:08.160Z,6.47
2018-07-06T03:12:47.755Z,5.43
2018-07-06T03:15:27.371Z,6.70
2018-07-06T03:18:07.312Z,6.90
2018-07-06T03:20:46.959Z,5.80
2018-07-06T03:23:26.691Z,6.03
2018-07-06T03:26:06.303Z,6.37
2018-07-06T03:28:46.284Z,6.43
2018-07-06T03:31:25.871Z,6.70
2018-07-06T03:34:05.815Z,6.60
2018-07-06T03:36:45.558Z,7.50
2018-07-06T03:39:25.156Z,6.50
2018-07-06T03:42:04.988Z,6.13
2018-07-06T03:44:44.843Z,7.10
2018-07-06T03:47:25.706Z,7.40
2018-07-06T03:50:05.367Z,6.80
2018-07-06T03:52:45.046Z,7.30
2018-07-06T03:55:21.291Z,6.30
2018-07-06T03:58:02.750Z,6.93
2018-07-06T04:00:42.473Z,6.40
2018-07-06T04:03:22.253Z,6.03
2018-07-06T04:06:02.424Z,7.53
2018-07-06T04:08:42.192Z,7.70
2018-07-06T04:11:15.967Z,6.73
2018-07-06T04:13:55.687Z,7.47
2018-07-06T04:16:35.462Z,6.60
2018-07-06T04:19:15.145Z,7.53
2018-07-06T04:21:49.006Z,7.37
2018-07-06T04:24:29.052Z,7.63
2018-07-06T04:27:09.049Z,7.80
2018-07-06T04:29:42.691Z,7.00
2018-07-06T04:32:22.471Z,7.10
2018-07-06T04:35:02.111Z,7.23
2018-07-06T04:37:41.779Z,6.87
2018-07-06T04:40:15.426Z,7.10
2018-07-06T04:42:55.104Z,7.10
2018-07-06T04:45:34.888Z,8.40
2018-07-06T04:48:14.674Z,7.70
2018-07-06T04:50:54.295Z,7.70
2018-07-06T04:53:33.845Z,8.23
2018-07-06T04:56:13.836Z,8.30
2018-07-06T04:58:53.452Z,8.17
2018-07-06T05:01:32.931Z,8.47
2018-07-06T05:04:12.922Z,8.53
2018-07-06T05:06:52.691Z,8.90
2018-07-06T05:10:36.203Z,9.60
2018-07-06T05:13:16.034Z,8.37
2018-07-06T05:15:49.683Z,7.40
2018-07-06T05:18:29.367Z,9.10
2018-07-06T05:21:09.083Z,8.83
2018-07-06T05:23:48.682Z,8.33
2018-07-06T05:26:28.336Z,8.60
2018-07-06T05:29:08.175Z,8.20
2018-07-06T05:31:47.921Z,9.00
2018-07-06T05:34:27.722Z,8.30
2018-07-06T05:37:07.892Z,8.80
2018-07-06T05:39:47.825Z,7.80
2018-07-06T05:42:27.632Z,8.60
2018-07-06T05:45:07.379Z,8.30
2018-07-06T05:47:47.132Z,8.23
2018-07-06T05:50:26.680Z,7.73
2018-07-06T05:53:06.335Z,8.83
2018-07-06T05:55:47.114Z,8.33
2018-07-06T05:58:26.731Z,8.53
2018-07-06T06:01:06.600Z,7.90
2018-07-06T06:03:46.351Z,8.40
2018-07-06T06:06:26.236Z,10.17
2018-07-06T06:08:53.625Z,12.60
2018-07-06T06:11:22.251Z,13.20
2018-07-06T06:13:50.855Z,12.90
2018-07-06T06:16:19.647Z,13.40
2018-07-06T06:18:48.343Z,13.20
2018-07-06T06:21:16.753Z,11.40
2018-07-06T06:23:45.302Z,13.33
2018-07-06T06:26:13.510Z,13.03
2018-07-06T06:28:42.034Z,15.10
2018-07-06T06:31:10.515Z,14.70
2018-07-06T06:33:39.068Z,13.03
2018-07-06T06:36:07.498Z,17.87
2018-07-06T06:38:36.011Z,17.20
2018-07-06T06:41:04.476Z,17.20
2018-07-06T06:43:32.576Z,17.87
2018-07-06T06:46:01.164Z,24.47
2018-07-06T06:48:29.791Z,24.80
2018-07-06T06:50:58.338Z,26.73
2018-07-06T06:53:26.847Z,30.90
2018-07-06T12:46:33.988Z,9.70
2018-07-06T12:49:02.244Z,11.23
2018-07-06T12:51:30.756Z,9.20
2018-07-06T12:53:59.192Z,9.80
2018-07-06T12:56:27.788Z,9.83
2018-07-06T12:58:56.263Z,8.60
2018-07-06T13:01:24.815Z,9.97
2018-07-06T13:03:53.335Z,9.40
2018-07-06T13:06:21.852Z,10.70
2018-07-06T13:08:50.312Z,9.73
2018-07-06T13:11:18.845Z,9.80
2018-07-06T13:13:47.351Z,9.57
2018-07-06T13:16:15.843Z,8.73
2018-07-06T13:18:44.355Z,8.93
2018-07-06T13:21:12.852Z,8.80
2018-07-06T13:23:40.997Z,8.47
2018-07-06T13:26:09.533Z,8.20
2018-07-06T13:28:38.101Z,8.83
2018-07-06T13:31:06.960Z,9.33
2018-07-06T13:33:35.576Z,8.90
2018-07-06T13:36:04.073Z,8.67
2018-07-06T13:38:32.513Z,25.33
2018-07-06T13:41:01.139Z,8.90
2018-07-06T13:43:29.678Z,7.73
2018-07-06T13:46:00.188Z,8.43
2018-07-06T13:48:28.780Z,8.00
2018-07-06T13:50:57.250Z,6.83
2018-07-06T13:53:25.804Z,8.43
2018-07-06T13:55:54.547Z,6.60
2018-07-06T13:58:23.024Z,8.10
2018-07-06T14:00:51.447Z,8.27
2018-07-06T14:03:20.010Z,7.17
2018-07-06T14:05:48.449Z,6.37
2018-07-06T14:08:16.936Z,10.40
2018-07-06T14:10:45.519Z,7.30
2018-07-06T14:13:14.246Z,7.10
2018-07-06T14:15:42.791Z,7.20
2018-07-06T14:18:11.324Z,6.40
2018-07-06T14:20:39.973Z,6.30
2018-07-06T14:23:08.503Z,6.77
2018-07-06T14:25:37.150Z,7.47
2018-07-06T14:28:05.513Z,7.13
2018-07-06T14:30:33.591Z,7.53
2018-07-06T14:33:02.099Z,6.43
2018-07-06T14:35:30.543Z,7.20
2018-07-06T14:37:59.260Z,6.80
2018-07-06T14:40:27.689Z,6.30
2018-07-06T14:42:56.980Z,6.57
2018-07-06T14:45:26.019Z,6.30
2018-07-06T14:47:54.538Z,6.03
2018-07-06T14:50:23.048Z,5.33
2018-07-06T14:52:51.689Z,7.73
2018-07-06T14:55:20.421Z,8.30
2018-07-06T14:57:48.955Z,8.50
2018-07-06T15:00:17.475Z,7.50
2018-07-06T15:02:46.160Z,7.23
2018-07-06T15:05:14.725Z,6.40
2018-07-06T15:07:43.221Z,6.57
2018-07-06T15:10:12.120Z,6.50
2018-07-06T15:12:40.758Z,6.83
2018-07-06T15:15:09.223Z,6.80
2018-07-06T15:17:38.132Z,6.37
2018-07-06T15:20:06.666Z,5.97
2018-07-06T15:22:35.446Z,7.50
2018-07-06T15:25:04.135Z,6.00
2018-07-06T15:27:32.696Z,6.27
2018-07-06T15:30:01.212Z,7.13
2018-07-06T15:32:30.156Z,6.67
2018-07-06T15:36:01.608Z,6.57
2018-07-06T15:38:30.139Z,5.80
2018-07-06T15:40:58.789Z,6.70
2018-07-06T15:43:26.975Z,17.63
2018-07-06T15:45:55.424Z,6.50
2018-07-06T15:48:23.953Z,11.57
2018-07-06T15:50:52.598Z,6.20
2018-07-06T15:53:21.195Z,6.40
2018-07-06T15:55:49.407Z,5.70
2018-07-06T15:58:18.042Z,5.37
2018-07-06T16:00:46.815Z,7.60
2018-07-06T16:03:15.359Z,9.13
2018-07-06T16:05:43.925Z,6.53
2018-07-06T16:08:12.530Z,5.77
2018-07-06T16:10:41.080Z,5.30
2018-07-06T16:13:09.268Z,6.43
2018-07-06T16:15:37.840Z,5.53
2018-07-06T16:18:06.251Z,5.43
2018-07-06T16:20:34.811Z,5.00
2018-07-06T16:23:02.987Z,5.60
2018-07-06T16:25:31.458Z,4.90
2018-07-06T16:28:00.098Z,5.47
2018-07-06T16:30:28.578Z,5.90
2018-07-06T16:32:57.141Z,5.70
2018-07-06T16:35:25.651Z,6.13
2018-07-06T16:37:54.196Z,5.53
2018-07-06T16:40:22.709Z,5.63
2018-07-06T16:42:51.180Z,5.50
2018-07-06T16:45:19.728Z,5.20
2018-07-06T16:47:47.923Z,5.67
2018-07-06T16:50:16.504Z,6.70
2018-07-06T16:52:45.222Z,6.70
2018-07-06T16:55:13.946Z,8.37
2018-07-06T16:57:42.406Z,6.80
2018-07-06T17:01:14.504Z,7.17
2018-07-06T17:03:42.994Z,6.40
2018-07-06T17:06:11.227Z,5.43
2018-07-06T17:08:39.807Z,5.70
2018-07-06T17:11:09.852Z,6.57
2018-07-06T17:13:38.499Z,5.73
2018-07-06T17:16:07.053Z,4.60
2018-07-06T17:18:35.660Z,4.90
2018-07-06T17:21:04.314Z,4.63
2018-07-06T17:23:32.893Z,3.50
2018-07-06T17:26:01.391Z,4.23
2018-07-06T17:28:29.548Z,8.70
2018-07-06T17:30:58.072Z,5.23
2018-07-06T17:33:26.617Z,4.73
2018-07-06T17:35:54.874Z,6.03
2018-07-06T17:38:23.407Z,5.00
2018-07-06T17:40:52.208Z,4.13
2018-07-06T17:43:20.743Z,4.37
2018-07-06T17:45:49.329Z,4.30
2018-07-06T17:48:17.892Z,4.63
2018-07-06T17:50:46.441Z,5.00
2018-07-06T17:53:14.961Z,4.63
2018-07-06T17:55:43.674Z,4.23
2018-07-06T17:58:12.342Z,5.40
2018-07-06T18:00:41.199Z,7.63
2018-07-06T18:03:09.761Z,4.87
2018-07-06T18:05:38.415Z,5.80
2018-07-06T18:08:06.613Z,6.20
2018-07-06T18:10:35.167Z,5.53
2018-07-06T18:13:03.720Z,3.37
2018-07-06T18:15:32.286Z,3.40
2018-07-06T18:18:00.999Z,3.43
2018-07-06T18:20:30.118Z,3.30
2018-07-06T18:22:58.678Z,3.30
2018-07-06T18:25:27.186Z,3.37
2018-07-06T18:27:55.668Z,3.20
2018-07-06T18:30:24.301Z,3.53
2018-07-06T18:32:52.815Z,3.53
2018-07-06T18:35:21.310Z,5.23
2018-07-06T18:37:49.843Z,3.20
2018-07-06T18:40:18.464Z,3.57
2018-07-06T18:42:47.269Z,3.60
2018-07-06T18:45:15.775Z,3.80
2018-07-06T18:47:44.328Z,3.60
2018-07-06T18:50:12.804Z,4.20
2018-07-06T18:52:41.611Z,3.90
2018-07-06T18:55:09.797Z,3.73
2018-07-06T18:57:38.131Z,4.23
2018-07-06T19:00:07.030Z,3.83
2018-07-06T19:02:35.737Z,4.27
2018-07-06T19:05:04.209Z,3.53
2018-07-06T19:07:32.710Z,3.77
2018-07-06T19:10:01.236Z,3.70
2018-07-06T19:12:29.806Z,3.90
2018-07-06T19:14:58.409Z,4.17
2018-07-06T19:17:27.008Z,4.63
2018-07-06T19:19:55.815Z,5.83
2018-07-06T19:22:24.291Z,6.10
2018-07-06T19:24:52.836Z,4.80
2018-07-06T19:27:21.407Z,5.00
2018-07-06T19:29:49.855Z,6.40
2018-07-06T19:32:18.564Z,4.40
2018-07-06T19:34:47.047Z,7.50
2018-07-06T19:37:15.231Z,9.83
2018-07-06T19:39:43.688Z,19.00
2018-07-06T19:42:12.219Z,19.53
2018-07-06T19:44:40.760Z,9.93
2018-07-06T19:47:08.947Z,8.43
2018-07-06T19:49:37.202Z,8.13
2018-07-06T19:52:05.888Z,11.93
2018-07-06T19:54:34.391Z,10.70
2018-07-06T19:57:02.628Z,6.50
2018-07-06T19:59:31.150Z,11.03
2018-07-06T20:01:59.585Z,22.80
2018-07-06T20:04:28.115Z,7.07
2018-07-06T20:06:56.545Z,7.30
2018-07-06T20:09:25.059Z,6.30
2018-07-06T20:11:53.592Z,6.73
2018-07-06T20:14:22.094Z,8.80
2018-07-06T20:16:50.584Z,5.90
2018-07-06T20:19:19.230Z,7.57
2018-07-06T20:21:47.987Z,13.20
2018-07-06T20:24:16.163Z,7.37
2018-07-06T20:26:44.683Z,8.57
2018-07-06T20:29:13.447Z,10.13
2018-07-06T20:31:42.135Z,7.17
2018-07-06T20:34:10.391Z,6.27
2018-07-06T20:36:38.648Z,4.80
2018-07-06T20:39:06.908Z,16.77
2018-07-06T20:41:36.666Z,11.30
2018-07-06T20:44:05.090Z,10.07
2018-07-06T20:46:33.599Z,16.90
2018-07-06T20:49:02.145Z,11.60
2018-07-06T20:51:30.700Z,13.97
2018-07-06T20:53:58.913Z,10.40
2018-07-06T20:56:27.408Z,11.20
2018-07-06T21:00:20.372Z,9.90
2018-07-06T21:02:49.907Z,8.73
2018-07-06T21:05:18.429Z,8.77
2018-07-06T21:07:46.835Z,6.70
2018-07-06T21:10:15.355Z,7.30
2018-07-06T21:12:43.677Z,14.07
2018-07-06T21:15:12.300Z,18.00
2018-07-06T21:17:40.785Z,17.27
2018-07-06T21:20:09.407Z,16.10
2018-07-06T21:22:37.555Z,17.50
2018-07-06T21:25:06.113Z,9.30
2018-07-06T21:27:34.617Z,7.80
2018-07-06T21:30:03.096Z,9.80
2018-07-06T21:32:31.570Z,8.90
2018-07-06T21:35:00.099Z,6.87
2018-07-06T21:37:28.567Z,6.50
2018-07-06T21:39:57.103Z,30.47
2018-07-06T21:42:26.634Z,6.50
2018-07-06T21:44:55.079Z,6.13
2018-07-06T21:47:23.616Z,5.70
2018-07-06T21:49:51.769Z,5.63
2018-07-06T21:52:20.575Z,5.10
2018-07-06T21:54:49.126Z,6.00
2018-07-06T21:57:17.823Z,5.93
2018-07-06T21:59:46.357Z,6.47
2018-07-06T22:02:16.030Z,6.07
2018-07-06T22:04:46.469Z,6.63
2018-07-06T22:07:15.635Z,6.90
2018-07-06T22:09:44.451Z,5.83
2018-07-06T22:12:13.474Z,9.60
2018-07-06T22:14:42.309Z,6.17
2018-07-06T22:17:10.926Z,6.93
2018-07-06T22:19:39.146Z,8.13
2018-07-06T22:22:08.173Z,7.10
2018-07-06T22:24:37.055Z,7.70
2018-07-06T22:27:05.869Z,7.87
2018-07-06T22:29:34.592Z,8.40
2018-07-06T22:32:03.394Z,8.27
2018-07-06T22:34:32.101Z,7.60
2018-07-06T22:37:00.575Z,13.47
2018-07-06T22:39:29.075Z,8.87
2018-07-06T22:41:57.532Z,6.20
2018-07-06T22:44:26.188Z,6.50
2018-07-06T22:46:54.625Z,5.30
2018-07-06T22:49:23.144Z,5.23
2018-07-06T22:51:51.284Z,5.10
2018-07-06T22:54:19.763Z,5.83
2018-07-06T22:56:48.254Z,7.80
2018-07-06T22:59:16.707Z,13.40
2018-07-06T23:01:45.204Z,20.40
2018-07-06T23:04:13.712Z,9.70
2018-07-06T23:06:42.175Z,8.57
2018-07-06T23:09:10.639Z,8.10
2018-07-06T23:11:39.176Z,7.50
2018-07-06T23:14:07.337Z,7.00
2018-07-06T23:16:35.531Z,6.53
2018-07-06T23:19:03.981Z,6.67
2018-07-06T23:21:32.432Z,6.20
2018-07-06T23:24:00.933Z,9.57
2018-07-06T23:26:29.408Z,10.50
2018-07-06T23:28:57.898Z,11.23
2018-07-06T23:31:26.348Z,12.63
2018-07-06T23:33:54.863Z,8.80
2018-07-06T23:36:23.376Z,8.63
2018-07-06T23:38:51.563Z,5.53
2018-07-06T23:41:19.730Z,5.27
2018-07-06T23:43:47.910Z,5.57
2018-07-06T23:46:16.347Z,5.50
2018-07-06T23:48:44.815Z,8.70
2018-07-06T23:51:13.290Z,7.20
2018-07-06T23:53:42.802Z,7.53
2018-07-06T23:56:11.323Z,6.70
2018-07-06T23:58:39.923Z,10.30
